createdAt,value
2022-07-30T00:00:02.238Z,16.87
2022-07-30T00:05:02.047Z,16.66
2022-07-30T00:10:01.884Z,16.59
2022-07-30T00:15:01.385Z,16.54
2022-07-30T00:20:01.421Z,16.41
2022-07-30T00:25:01.269Z,16.35
2022-07-30T00:30:01.474Z,16.31
2022-07-30T00:35:01.807Z,16.26
2022-07-30T00:40:01.350Z,16.21
2022-07-30T00:45:01.350Z,16.17
2022-07-30T00:50:01.379Z,16.17
2022-07-30T00:55:02.157Z,16.16
2022-07-30T01:00:01.670Z,16.14
2022-07-30T01:05:01.655Z,16.1
2022-07-30T01:10:01.759Z,16.08
2022-07-30T01:15:02.017Z,16.03
2022-07-30T01:20:02.075Z,15.97
2022-07-30T01:25:01.796Z,15.91
2022-07-30T01:30:01.571Z,15.86
2022-07-30T01:35:01.734Z,15.83
2022-07-30T01:40:01.411Z,15.82
2022-07-30T01:45:01.969Z,15.75
2022-07-30T01:50:01.230Z,15.72
2022-07-30T01:55:01.452Z,15.67
2022-07-30T02:00:02.042Z,15.6
2022-07-30T02:05:01.871Z,15.56
2022-07-30T02:10:01.447Z,15.55
2022-07-30T02:15:01.904Z,15.52
2022-07-30T02:20:01.201Z,15.47
2022-07-30T02:25:02.015Z,15.59
2022-07-30T02:30:01.643Z,15.63
2022-07-30T02:35:01.695Z,15.59
2022-07-30T02:40:01.427Z,15.82
2022-07-30T02:45:01.909Z,15.72
2022-07-30T02:50:01.661Z,15.6
2022-07-30T02:55:02.138Z,15.55
2022-07-30T03:00:01.289Z,15.43
2022-07-30T03:05:01.795Z,15.36
2022-07-30T03:10:01.802Z,15.26
2022-07-30T03:15:02.062Z,15.21
2022-07-30T03:20:01.617Z,15.1
2022-07-30T03:25:01.654Z,15.08
2022-07-30T03:30:01.921Z,15.09
2022-07-30T03:35:05.975Z,15.04
2022-07-30T03:40:01.813Z,15.22
2022-07-30T03:45:01.358Z,15.25
2022-07-30T03:50:01.641Z,15.17
2022-07-30T03:55:02.066Z,15.09
2022-07-30T04:00:01.244Z,15.01
2022-07-30T04:05:01.430Z,14.92
2022-07-30T04:10:01.943Z,14.82
2022-07-30T04:15:01.165Z,14.79
2022-07-30T04:20:01.903Z,14.74
2022-07-30T04:25:01.717Z,14.78
2022-07-30T04:30:01.355Z,14.83
2022-07-30T04:35:02.100Z,14.84
2022-07-30T04:40:01.308Z,14.91
2022-07-30T04:45:01.378Z,14.97
2022-07-30T04:50:01.340Z,15.02
2022-07-30T04:55:02.070Z,15.15
2022-07-30T05:00:01.199Z,15.26
2022-07-30T05:05:01.843Z,15.29
2022-07-30T05:10:01.916Z,15.38
2022-07-30T05:15:01.568Z,15.46
2022-07-30T05:20:01.700Z,15.59
2022-07-30T05:25:01.251Z,15.68
2022-07-30T05:30:01.166Z,15.81
2022-07-30T05:35:01.254Z,15.87
2022-07-30T05:40:02.804Z,15.93
2022-07-30T05:45:01.497Z,16.05
2022-07-30T05:50:05.047Z,16.16
2022-07-30T05:55:01.594Z,16.3
2022-07-30T06:00:02.052Z,16.43
2022-07-30T06:05:01.823Z,16.59
2022-07-30T06:10:01.622Z,16.79
2022-07-30T06:15:01.595Z,17.04
2022-07-30T06:20:01.200Z,17.39
2022-07-30T06:25:01.872Z,17.78
2022-07-30T06:30:01.746Z,18.7
2022-07-30T06:35:04.812Z,19.18
2022-07-30T06:40:01.808Z,19.54
2022-07-30T06:45:02.127Z,19.74
2022-07-30T06:50:01.670Z,20.24
2022-07-30T06:55:01.942Z,20.35
2022-07-30T07:00:01.357Z,20.51
2022-07-30T07:05:01.444Z,20.81
2022-07-30T07:10:01.203Z,21.18
2022-07-30T07:15:01.163Z,21.15
2022-07-30T07:20:02.745Z,20.77
2022-07-30T07:25:01.575Z,20.93
2022-07-30T07:30:05.240Z,21.3
2022-07-30T07:35:01.988Z,21.65
2022-07-30T07:40:01.763Z,21.85
2022-07-30T07:45:01.702Z,21.5
2022-07-30T07:50:01.311Z,21.84
2022-07-30T07:55:02.784Z,21.78
2022-07-30T08:00:01.777Z,21.78
2022-07-30T08:05:01.838Z,21.31
2022-07-30T08:10:01.458Z,21.65
2022-07-30T08:15:01.401Z,21.65
2022-07-30T08:20:01.433Z,22.28
2022-07-30T08:25:01.438Z,22.31
2022-07-30T08:30:01.260Z,22.33
2022-07-30T08:35:01.446Z,22.65
2022-07-30T08:40:01.908Z,23
2022-07-30T08:45:02.223Z,23.01
2022-07-30T08:50:01.505Z,21.88
2022-07-30T08:55:01.632Z,21.89
2022-07-30T09:00:02.112Z,21.95
2022-07-30T09:05:01.492Z,22.81
2022-07-30T09:10:01.210Z,23.11
2022-07-30T09:15:01.280Z,22.44
2022-07-30T09:20:01.405Z,22.8
2022-07-30T09:25:01.165Z,22.19
2022-07-30T09:30:01.239Z,22.23
2022-07-30T09:35:02.080Z,22.71
2022-07-30T09:40:01.160Z,22.87
2022-07-30T09:45:01.787Z,23.13
2022-07-30T09:50:07.067Z,23.36
2022-07-30T09:55:01.561Z,23.6
2022-07-30T10:00:01.763Z,23.41
2022-07-30T10:05:02.051Z,23.74
2022-07-30T10:10:01.775Z,23.6
2022-07-30T10:15:01.263Z,23.81
2022-07-30T10:20:03.093Z,24.13
2022-07-30T10:25:01.402Z,24.24
2022-07-30T10:30:03.564Z,23.91
2022-07-30T10:35:01.955Z,23.77
2022-07-30T10:40:01.761Z,23.55
2022-07-30T10:45:02.208Z,24.12
2022-07-30T10:50:02.251Z,24.28
2022-07-30T10:55:01.876Z,24.04
2022-07-30T11:00:04.102Z,24.28
2022-07-30T11:05:01.652Z,24.17
2022-07-30T11:10:05.587Z,24.09
2022-07-30T11:15:07.242Z,23.97
2022-07-30T11:20:01.557Z,23.73
2022-07-30T11:25:01.782Z,23.73
2022-07-30T11:30:02.142Z,24.08
2022-07-30T11:35:01.698Z,24.24
2022-07-30T11:40:01.856Z,24.26
2022-07-30T11:45:04.060Z,24.06
2022-07-30T11:50:01.330Z,24.41
2022-07-30T11:55:01.500Z,23.9
2022-07-30T12:00:01.725Z,23.65
2022-07-30T12:05:01.457Z,23.53
2022-07-30T12:10:02.096Z,24.03
2022-07-30T12:15:02.164Z,24.17
2022-07-30T12:20:02.032Z,24.26
2022-07-30T12:25:01.487Z,24.38
2022-07-30T12:30:01.594Z,24.34
2022-07-30T12:35:01.454Z,24.57
2022-07-30T12:40:01.286Z,24.44
2022-07-30T12:45:02.047Z,24.16
2022-07-30T12:50:02.186Z,24.24
2022-07-30T12:55:01.785Z,24.26
2022-07-30T13:00:01.163Z,24.41
2022-07-30T13:05:11.107Z,24.55
2022-07-30T13:10:01.386Z,24.49
2022-07-30T13:15:01.601Z,24.53
2022-07-30T13:20:01.666Z,24.42
2022-07-30T13:25:02.089Z,24.59
2022-07-30T13:30:01.976Z,24.41
2022-07-30T13:35:02.353Z,24.34
2022-07-30T13:40:01.495Z,24.39
2022-07-30T13:45:01.859Z,24.76
2022-07-30T13:50:01.940Z,24.78
2022-07-30T13:55:01.158Z,24.68
2022-07-30T14:00:02.115Z,24.49
2022-07-30T14:05:01.644Z,24.44
2022-07-30T14:10:01.665Z,24.85
2022-07-30T14:15:02.045Z,24.95
2022-07-30T14:20:01.369Z,25.13
2022-07-30T14:25:01.555Z,25
2022-07-30T14:30:02.167Z,24.99
2022-07-30T14:35:01.681Z,24.84
2022-07-30T14:40:01.314Z,24.99
2022-07-30T14:45:01.431Z,25.01
2022-07-30T14:50:02.149Z,25.13
2022-07-30T14:55:03.846Z,25.14
2022-07-30T15:00:01.970Z,24.95
2022-07-30T15:05:01.417Z,25.12
2022-07-30T15:10:01.264Z,25.23
2022-07-30T15:15:01.955Z,25.2
2022-07-30T15:20:01.961Z,25.19
2022-07-30T15:25:01.726Z,25.28
2022-07-30T15:30:01.455Z,25.19
2022-07-30T15:35:01.925Z,25.13
2022-07-30T15:40:01.642Z,25.18
2022-07-30T15:45:16.145Z,25.18
2022-07-30T15:50:02.036Z,25.2
2022-07-30T15:55:01.948Z,25.23
2022-07-30T16:00:01.179Z,25.17
2022-07-30T16:05:02.003Z,25.15
2022-07-30T16:10:01.984Z,25.07
2022-07-30T16:15:01.400Z,25.12
2022-07-30T16:20:01.456Z,24.98
2022-07-30T16:25:01.437Z,25.09
2022-07-30T16:30:01.753Z,25.1
2022-07-30T16:35:01.407Z,25.03
2022-07-30T16:40:01.904Z,24.77
2022-07-30T16:45:02.102Z,24.69
2022-07-30T16:50:01.180Z,24.61
2022-07-30T16:55:01.199Z,24.56
2022-07-30T17:00:01.153Z,24.44
2022-07-30T17:05:01.208Z,24.33
2022-07-30T17:10:02.021Z,24.12
2022-07-30T17:15:01.559Z,24.02
2022-07-30T17:20:01.590Z,23.99
2022-07-30T17:25:01.989Z,23.99
2022-07-30T17:30:01.732Z,24.01
2022-07-30T17:35:01.499Z,24.04
2022-07-30T17:40:29.820Z,24.06
2022-07-30T17:45:01.430Z,24.1
2022-07-30T17:50:01.490Z,24.04
2022-07-30T17:55:01.753Z,24.01
2022-07-30T18:00:01.534Z,23.95
2022-07-30T18:05:01.246Z,23.77
2022-07-30T18:10:01.183Z,23.57
2022-07-30T18:15:01.975Z,23.38
2022-07-30T18:20:01.721Z,23.11
2022-07-30T18:25:01.342Z,22.99
2022-07-30T18:30:02.123Z,22.82
2022-07-30T18:35:01.169Z,22.63
2022-07-30T18:40:01.397Z,22.37
2022-07-30T18:45:01.724Z,22.19
2022-07-30T18:50:01.293Z,22.07
2022-07-30T18:55:01.692Z,21.88
2022-07-30T19:00:02.062Z,21.74
2022-07-30T19:05:01.472Z,21.66
2022-07-30T19:10:01.520Z,21.58
2022-07-30T19:15:02.034Z,21.48
2022-07-30T19:20:01.891Z,21.43
2022-07-30T19:25:01.937Z,21.4
2022-07-30T19:30:01.954Z,21.43
2022-07-30T19:35:01.807Z,21.37
2022-07-30T19:45:04.242Z,21.23
2022-07-30T19:50:02.043Z,21.08
2022-07-30T19:55:01.265Z,21.1
2022-07-30T20:00:04.040Z,21.01
2022-07-30T20:05:02.117Z,20.99
2022-07-30T20:10:01.954Z,20.93
2022-07-30T20:15:02.015Z,20.89
2022-07-30T20:20:01.492Z,20.84
2022-07-30T20:25:01.536Z,20.79
2022-07-30T20:30:01.594Z,20.74
2022-07-30T20:35:01.327Z,20.8
2022-07-30T20:40:02.013Z,20.81
2022-07-30T20:45:01.605Z,20.9
2022-07-30T20:50:01.450Z,20.94
2022-07-30T20:55:01.664Z,20.93
2022-07-30T21:00:01.676Z,20.89
2022-07-30T21:05:01.392Z,20.94
2022-07-30T21:10:01.465Z,20.94
2022-07-30T21:15:02.017Z,20.87
2022-07-30T21:20:01.544Z,20.84
2022-07-30T21:25:01.414Z,20.78
2022-07-30T21:30:01.618Z,20.74
2022-07-30T21:35:01.445Z,20.72
2022-07-30T21:40:01.393Z,20.74
2022-07-30T21:45:01.564Z,20.71
2022-07-30T21:50:01.235Z,20.59
2022-07-30T21:55:04.273Z,20.47
2022-07-30T22:00:01.267Z,20.37
2022-07-30T22:05:02.194Z,20.36
2022-07-30T22:10:01.858Z,20.27
2022-07-30T22:15:01.423Z,20.13
2022-07-30T22:20:01.256Z,20.03
2022-07-30T22:25:01.851Z,20.04
2022-07-30T22:30:01.967Z,20.04
2022-07-30T22:35:01.287Z,20.05
2022-07-30T22:40:01.702Z,20.11
2022-07-30T22:45:01.422Z,20.17
2022-07-30T22:50:01.871Z,20.21
2022-07-30T22:55:09.025Z,20.33
2022-07-30T23:00:01.583Z,20.35
2022-07-30T23:05:03.042Z,20.35
2022-07-30T23:10:01.176Z,20.33
2022-07-30T23:12:16.555Z,21.3
2022-07-30T23:15:02.032Z,20.26
2022-07-30T23:20:01.414Z,20.16
2022-07-30T23:25:01.747Z,20.07
2022-07-30T23:30:01.952Z,20.07
2022-07-30T23:35:01.420Z,20.01
2022-07-30T23:40:01.705Z,20.07
2022-07-30T23:45:01.747Z,20.07
2022-07-30T23:50:01.352Z,20
2022-07-30T23:55:02.049Z,19.95
